Pocatello, ID

9:17 AM MDT on August 25, 2016 (GMT -0600)
North West Pocatello | | Change Station

Elev 5194 ft 42.90 °N, 112.48 °W | Updated 21 seconds ago

Clear
Clear
59.5 °F
Feels Like 59.5 °F
N
2.2
Wind Variable Wind from NNE

Today
High -- | Low -- °F
--% Chance of Precip.
Yesterday
High -- | Low -- °F
Precip. -- in
Pressure 30.13 in
Visibility 10.0 miles
Clouds Clear
Dew Point 39 °F
Humidity 47%
Rainfall 0.00 in
Snow Depth Not available.
6:47 AM 8:15 PM
Last Quarter, 45% visible
METAR KPIH 251453Z VRB06KT 10SM CLR 13/03 A3021 RMK AO2 SLP203 T01280028 53004
Pressure 30.13 in
Visibility 10.0 miles
Clouds Clear
Dew Point 39 °F
Humidity 47%
Rainfall 0.00 in
Snow Depth Not available.
6:47 AM 8:15 PM
Last Quarter, 45% visible
METAR KPIH 251453Z VRB06KT 10SM CLR 13/03 A3021 RMK AO2 SLP203 T01280028 53004

10-Day Weather Forecast

Almanac

Astronomy

Aug. 25, 2016 Rise Set
Actual Time
Civil Twilight
Nautical Twilight
Astronomical Twilight
Moon
Length of Visible Light
Length of Day
Tomorrow will be .
, % of the Moon is Illuminated

Today's Extremes

State Highs State Lows

Community

WunderPhotos

Upload Photos

1,934,856 photos uploaded!

WunderBlog® & News

Nearby

Air Quality

  Air Quality AQ Index Pollutant
Not available.

Snow Depth

Station Depth Elevation

Earthquake Activity

City Distance Mag. Time & Date
Minimum magnitude displayed is 2.5.

Coastal Water Temperatures

Place Temperature

Stations

Nearby Weather Stations

Station Location Temp. Windchill Dew Point Humidity Wind Precip. Elev Updated Type
                   

Watches & Warnings

There are currently no watches in effect.